createdAt,value
2023-05-10T00:00:08.929Z,0.73
2023-05-10T00:01:08.965Z,0.73
2023-05-10T00:02:09.996Z,0.75
2023-05-10T00:03:10.112Z,0.76
2023-05-10T00:04:10.128Z,0.76
2023-05-10T00:05:10.086Z,0.76
2023-05-10T00:06:09.075Z,0.74
2023-05-10T00:07:10.100Z,0.73
2023-05-10T00:08:10.212Z,0.75
2023-05-10T00:09:10.193Z,0.73
2023-05-10T00:10:09.202Z,0.75
2023-05-10T00:11:10.257Z,0.75
2023-05-10T00:12:09.281Z,0.78
2023-05-10T00:13:09.402Z,0.76
2023-05-10T00:14:09.365Z,0.73
2023-05-10T00:15:10.388Z,0.76
2023-05-10T00:16:10.458Z,0.76
2023-05-10T00:17:10.398Z,0.76
2023-05-10T00:18:10.524Z,0.78
2023-05-10T00:19:10.526Z,0.77
2023-05-10T00:20:10.544Z,0.77
2023-05-10T00:21:10.593Z,0.73
2023-05-10T00:22:10.588Z,0.76
2023-05-10T00:23:09.611Z,0.72
2023-05-10T00:24:09.647Z,0.77
2023-05-10T00:25:10.644Z,0.79
2023-05-10T00:26:09.754Z,0.76
2023-05-10T00:27:10.716Z,0.74
2023-05-10T00:28:10.715Z,0.76
2023-05-10T00:29:10.767Z,0.75
2023-05-10T00:30:09.724Z,0.74
2023-05-10T00:31:10.811Z,0.76
2023-05-10T00:32:09.831Z,0.76
2023-05-10T00:33:10.883Z,0.75
2023-05-10T00:34:10.891Z,0.74
2023-05-10T00:35:10.832Z,0.76
2023-05-10T00:36:10.975Z,0.76
2023-05-10T00:37:09.936Z,0.73
2023-05-10T00:38:11.019Z,0.79
2023-05-10T00:39:10.080Z,0.75
2023-05-10T00:40:11.045Z,0.78
2023-05-10T00:41:11.059Z,0.75
2023-05-10T00:42:11.012Z,0.78
2023-05-10T00:43:11.042Z,0.78
2023-05-10T00:44:11.100Z,0.79
2023-05-10T00:45:10.126Z,0.77
2023-05-10T00:46:10.255Z,0.72
2023-05-10T00:47:11.231Z,0.75
2023-05-10T00:48:10.221Z,0.75
2023-05-10T00:49:11.263Z,0.77
2023-05-10T00:50:10.286Z,0.77
2023-05-10T00:51:10.340Z,0.77
2023-05-10T00:52:11.368Z,0.76
2023-05-10T00:53:11.374Z,0.75
2023-05-10T00:54:11.378Z,0.77
2023-05-10T00:55:11.408Z,0.74
2023-05-10T00:56:11.458Z,0.75
2023-05-10T00:57:11.474Z,0.78
2023-05-10T00:58:11.518Z,0.76
2023-05-10T00:59:11.572Z,0.77
2023-05-10T01:00:11.579Z,0.75
2023-05-10T01:01:11.635Z,0.78
2023-05-10T01:02:10.688Z,0.76
2023-05-10T01:03:11.846Z,0.74
2023-05-10T01:04:11.725Z,0.74
2023-05-10T01:05:10.808Z,0.76
2023-05-10T01:06:11.812Z,0.79
2023-05-10T01:07:10.810Z,0.77
2023-05-10T01:08:11.925Z,0.76
2023-05-10T01:09:11.001Z,0.78
2023-05-10T01:10:12.012Z,0.75
2023-05-10T01:11:12.083Z,0.76
2023-05-10T01:12:11.097Z,0.77
2023-05-10T01:13:12.126Z,0.75
2023-05-10T01:14:12.148Z,0.77
2023-05-10T01:15:11.167Z,0.78
2023-05-10T01:16:11.202Z,0.80
2023-05-10T01:17:12.269Z,0.74
2023-05-10T01:18:11.266Z,0.77
2023-05-10T01:19:12.372Z,0.77
2023-05-10T01:20:12.349Z,0.78
2023-05-10T01:21:11.403Z,0.77
2023-05-10T01:22:12.450Z,0.79
2023-05-10T01:23:12.418Z,0.76
2023-05-10T01:24:11.450Z,0.77
2023-05-10T01:25:12.494Z,0.77
2023-05-10T01:26:12.502Z,0.76
2023-05-10T01:27:12.506Z,0.76
2023-05-10T01:28:12.558Z,0.76
2023-05-10T01:29:12.560Z,0.79
2023-05-10T01:30:15.897Z,0.78
2023-05-10T01:31:12.597Z,0.78
2023-05-10T01:32:11.568Z,0.77
2023-05-10T01:33:11.548Z,0.78
2023-05-10T01:34:11.512Z,0.80
2023-05-10T01:35:11.593Z,0.76
2023-05-10T01:36:11.505Z,0.80
2023-05-10T01:37:11.509Z,0.76
2023-05-10T01:38:11.521Z,0.77
2023-05-10T01:39:12.532Z,0.76
2023-05-10T01:40:12.549Z,0.75
2023-05-10T01:41:12.510Z,0.77
2023-05-10T01:42:11.497Z,0.77
2023-05-10T01:43:11.453Z,0.80
2023-05-10T01:44:11.504Z,0.78
2023-05-10T01:45:12.472Z,0.77
2023-05-10T01:46:11.637Z,0.81
2023-05-10T01:47:11.430Z,0.78
2023-05-10T01:48:12.515Z,0.82
2023-05-10T01:49:12.440Z,0.79
2023-05-10T01:50:11.499Z,0.78
2023-05-10T01:51:12.557Z,0.79
2023-05-10T01:52:11.534Z,0.75
2023-05-10T01:53:12.606Z,0.78
2023-05-10T01:54:11.545Z,0.75
2023-05-10T01:55:12.540Z,0.79
2023-05-10T01:56:11.542Z,0.82
2023-05-10T01:57:12.572Z,0.76
2023-05-10T01:58:12.592Z,0.76
2023-05-10T01:59:12.623Z,0.80
2023-05-10T02:00:11.669Z,0.79
2023-05-10T02:01:12.741Z,0.80
2023-05-10T02:02:11.690Z,0.80
2023-05-10T02:03:12.870Z,0.77
2023-05-10T02:04:12.762Z,0.81
2023-05-10T02:05:11.776Z,0.78
2023-05-10T02:06:11.806Z,0.77
2023-05-10T02:07:12.800Z,0.78
2023-05-10T02:08:12.806Z,0.76
2023-05-10T02:09:12.793Z,0.79
2023-05-10T02:10:12.913Z,0.76
2023-05-10T02:11:12.837Z,0.74
2023-05-10T02:12:12.811Z,0.74
2023-05-10T02:13:11.933Z,0.81
2023-05-10T02:14:11.865Z,0.76
2023-05-10T02:15:12.920Z,0.74
2023-05-10T02:16:12.976Z,0.78
2023-05-10T02:17:12.893Z,0.75
2023-05-10T02:18:12.927Z,0.76
2023-05-10T02:19:11.905Z,0.79
2023-05-10T02:20:12.928Z,0.78
2023-05-10T02:21:12.904Z,0.77
2023-05-10T02:22:12.947Z,0.79
2023-05-10T02:23:12.983Z,0.75
2023-05-10T02:24:12.984Z,0.77
2023-05-10T02:25:13.024Z,0.79
2023-05-10T02:26:12.060Z,0.77
2023-05-10T02:27:13.501Z,0.77
2023-05-10T02:28:13.051Z,0.80
2023-05-10T02:29:13.061Z,0.81
2023-05-10T02:30:13.123Z,0.75
2023-05-10T02:31:13.103Z,0.77
2023-05-10T02:32:13.163Z,0.77
2023-05-10T02:33:13.074Z,0.76
2023-05-10T02:34:13.075Z,0.80
2023-05-10T02:35:13.095Z,0.78
2023-05-10T02:36:13.127Z,0.83
2023-05-10T02:37:12.126Z,0.78
2023-05-10T02:38:13.153Z,0.79
2023-05-10T02:39:12.155Z,0.76
2023-05-10T02:40:13.201Z,0.79
2023-05-10T02:41:13.159Z,0.79
2023-05-10T02:42:12.168Z,0.80
2023-05-10T02:43:13.165Z,0.78
2023-05-10T02:44:12.186Z,0.77
2023-05-10T02:45:13.210Z,0.75
2023-05-10T02:46:12.220Z,0.76
2023-05-10T02:47:13.202Z,0.79
2023-05-10T02:48:13.334Z,0.75
2023-05-10T02:49:13.289Z,0.78
2023-05-10T02:50:13.333Z,0.81
2023-05-10T02:51:13.307Z,0.79
2023-05-10T02:52:13.273Z,0.79
2023-05-10T02:53:13.301Z,0.82
2023-05-10T02:54:14.008Z,0.80
2023-05-10T02:55:13.434Z,0.82
2023-05-10T02:56:12.425Z,0.76
2023-05-10T02:57:12.416Z,0.77
2023-05-10T02:58:13.484Z,0.78
2023-05-10T02:59:12.501Z,0.80
2023-05-10T03:00:13.542Z,0.76
2023-05-10T03:01:13.531Z,0.81
2023-05-10T03:02:13.495Z,0.77
2023-05-10T03:03:13.505Z,0.77
2023-05-10T03:04:13.625Z,0.81
2023-05-10T03:05:12.637Z,0.76
2023-05-10T03:06:13.616Z,0.77
2023-05-10T03:07:12.613Z,0.77
2023-05-10T03:08:12.665Z,0.77
2023-05-10T03:09:13.647Z,0.82
2023-05-10T03:10:13.687Z,0.75
2023-05-10T03:11:12.580Z,0.81
2023-05-10T03:12:13.662Z,0.82
2023-05-10T03:13:13.845Z,0.77
2023-05-10T03:14:13.659Z,0.79
2023-05-10T03:15:13.605Z,0.79
2023-05-10T03:16:12.674Z,0.76
2023-05-10T03:17:13.624Z,0.78
2023-05-10T03:18:13.745Z,0.80
2023-05-10T03:19:12.684Z,0.81
2023-05-10T03:20:13.713Z,0.77
2023-05-10T03:21:13.707Z,0.74
2023-05-10T03:22:13.704Z,0.80
2023-05-10T03:23:13.720Z,0.77
2023-05-10T03:24:13.747Z,0.78
2023-05-10T03:25:13.761Z,0.81
2023-05-10T03:26:13.803Z,0.79
2023-05-10T03:27:12.776Z,0.78
2023-05-10T03:28:13.793Z,0.79
2023-05-10T03:29:13.823Z,0.82
2023-05-10T03:30:13.949Z,0.77
2023-05-10T03:31:13.872Z,0.78
2023-05-10T03:32:12.862Z,0.78
2023-05-10T03:33:12.821Z,0.80
2023-05-10T03:34:13.812Z,0.80
2023-05-10T03:35:12.843Z,0.82
2023-05-10T03:36:13.835Z,0.79
2023-05-10T03:37:12.838Z,0.77
2023-05-10T03:38:12.844Z,0.79
2023-05-10T03:39:13.816Z,0.80
2023-05-10T03:40:12.814Z,0.77
2023-05-10T03:41:13.833Z,0.79
2023-05-10T03:42:12.898Z,0.80
2023-05-10T03:43:12.854Z,0.80
2023-05-10T03:44:13.833Z,0.77
2023-05-10T03:45:12.801Z,0.76
2023-05-10T03:46:12.919Z,0.77
2023-05-10T03:47:12.786Z,0.78
2023-05-10T03:48:13.900Z,0.77
2023-05-10T03:49:13.815Z,0.81
2023-05-10T03:50:13.813Z,0.77
2023-05-10T03:51:12.911Z,0.79
2023-05-10T03:52:13.783Z,0.78
2023-05-10T03:53:12.828Z,0.81
2023-05-10T03:54:12.832Z,0.80
2023-05-10T03:55:13.867Z,0.81
2023-05-10T03:56:12.839Z,0.76
2023-05-10T03:57:13.865Z,0.81
2023-05-10T03:58:12.828Z,0.79
2023-05-10T03:59:13.758Z,0.77
2023-05-10T04:00:13.817Z,0.75
2023-05-10T04:01:12.746Z,0.75
2023-05-10T04:02:13.744Z,0.80
2023-05-10T04:03:12.864Z,0.79
2023-05-10T04:04:13.804Z,0.76
2023-05-10T04:05:12.739Z,0.78
2023-05-10T04:06:13.772Z,0.82
2023-05-10T04:07:13.754Z,0.79
2023-05-10T04:08:13.717Z,0.78
2023-05-10T04:09:12.732Z,0.76
2023-05-10T04:10:13.751Z,0.80
2023-05-10T04:11:13.705Z,0.82
2023-05-10T04:12:12.744Z,0.82
2023-05-10T04:13:13.830Z,0.77
2023-05-10T04:14:13.725Z,0.78
2023-05-10T04:15:12.689Z,0.80
2023-05-10T04:16:13.784Z,0.78
2023-05-10T04:17:12.824Z,0.80
2023-05-10T04:18:12.691Z,0.79
2023-05-10T04:19:12.698Z,0.80
2023-05-10T04:20:12.695Z,0.78
2023-05-10T04:21:13.709Z,0.78
2023-05-10T04:22:13.687Z,0.77
2023-05-10T04:23:12.669Z,0.75
2023-05-10T04:24:13.687Z,0.80
2023-05-10T04:25:13.727Z,0.78
2023-05-10T04:26:12.708Z,0.75
2023-05-10T04:27:13.742Z,0.80
2023-05-10T04:28:13.782Z,0.76
2023-05-10T04:29:12.824Z,0.78
2023-05-10T04:30:13.744Z,0.77
2023-05-10T04:31:13.691Z,0.76
2023-05-10T04:32:12.737Z,0.79
2023-05-10T04:33:13.652Z,0.75
2023-05-10T04:34:13.680Z,0.82
2023-05-10T04:35:13.648Z,0.80
2023-05-10T04:36:13.652Z,0.80
2023-05-10T04:37:13.654Z,0.79
2023-05-10T04:38:13.640Z,0.79
2023-05-10T04:39:12.640Z,0.80
2023-05-10T04:40:12.671Z,0.79
2023-05-10T04:41:13.734Z,0.77
2023-05-10T04:42:12.670Z,0.77
2023-05-10T04:43:12.702Z,0.81
2023-05-10T04:44:13.619Z,0.77
2023-05-10T04:45:12.619Z,0.78
2023-05-10T04:46:12.676Z,0.79
2023-05-10T04:47:13.615Z,0.78
2023-05-10T04:48:12.610Z,0.81
2023-05-10T04:49:13.643Z,0.82
2023-05-10T04:50:12.658Z,0.78
2023-05-10T04:51:13.627Z,0.78
2023-05-10T04:52:12.672Z,0.80
2023-05-10T04:53:15.834Z,0.82
2023-05-10T04:54:13.606Z,0.80
2023-05-10T04:55:13.578Z,0.83
2023-05-10T04:56:13.590Z,0.81
2023-05-10T04:57:13.574Z,0.78
2023-05-10T04:58:13.591Z,0.79
2023-05-10T04:59:13.574Z,0.77
2023-05-10T05:00:13.561Z,0.74
2023-05-10T05:01:13.621Z,0.80
2023-05-10T05:02:13.591Z,0.77
2023-05-10T05:03:12.664Z,0.77
2023-05-10T05:04:13.564Z,0.76
2023-05-10T05:05:12.614Z,0.79
2023-05-10T05:06:12.595Z,0.80
2023-05-10T05:07:13.724Z,0.74
2023-05-10T05:08:13.534Z,0.79
2023-05-10T05:09:12.618Z,0.77
2023-05-10T05:10:13.522Z,0.75
2023-05-10T05:11:12.528Z,0.79
2023-05-10T05:12:13.466Z,0.80
2023-05-10T05:13:13.506Z,0.79
2023-05-10T05:14:13.456Z,0.77
2023-05-10T05:15:12.436Z,0.79
2023-05-10T05:16:13.579Z,0.76
2023-05-10T05:17:13.471Z,0.78
2023-05-10T05:18:13.539Z,0.76
2023-05-10T05:19:12.498Z,0.78
2023-05-10T05:20:13.469Z,0.80
2023-05-10T05:21:13.425Z,0.81
2023-05-10T05:22:13.422Z,0.79
2023-05-10T05:23:13.431Z,0.79
2023-05-10T05:24:12.406Z,0.78
2023-05-10T05:25:13.408Z,0.81
2023-05-10T05:26:13.419Z,0.76
2023-05-10T05:27:13.368Z,0.80
2023-05-10T05:28:12.347Z,0.83
2023-05-10T05:29:12.421Z,0.81
2023-05-10T05:30:13.510Z,0.77
2023-05-10T05:31:12.410Z,0.79
2023-05-10T05:32:13.420Z,0.83
2023-05-10T05:33:13.313Z,0.82
2023-05-10T05:34:13.475Z,0.81
2023-05-10T05:35:13.306Z,0.78
2023-05-10T05:36:12.362Z,0.84
2023-05-10T05:37:13.510Z,0.88
2023-05-10T05:38:13.528Z,0.86
2023-05-10T05:39:12.296Z,0.86
2023-05-10T05:40:13.263Z,0.91
2023-05-10T05:41:12.305Z,0.96
2023-05-10T05:42:13.244Z,0.95
2023-05-10T05:43:13.257Z,0.96
2023-05-10T05:44:12.297Z,0.96
2023-05-10T05:45:13.264Z,0.95
2023-05-10T05:46:19.609Z,0.98
2023-05-10T05:47:13.278Z,0.98
2023-05-10T05:48:12.214Z,0.97
2023-05-10T05:49:13.206Z,0.89
2023-05-10T05:50:13.226Z,0.87
2023-05-10T05:51:13.193Z,0.90
2023-05-10T05:52:13.203Z,0.89
2023-05-10T05:53:12.186Z,0.84
2023-05-10T05:54:13.155Z,0.80
2023-05-10T05:55:13.147Z,0.77
2023-05-10T05:56:12.148Z,0.82
2023-05-10T05:57:13.203Z,0.74
2023-05-10T05:58:13.144Z,0.72
2023-05-10T05:59:13.176Z,0.68
2023-05-10T06:00:13.143Z,0.75
2023-05-10T06:01:12.134Z,0.77
2023-05-10T06:02:13.604Z,0.79
2023-05-10T06:03:12.197Z,0.79
2023-05-10T06:04:13.159Z,0.76
2023-05-10T06:05:12.091Z,0.77
2023-05-10T06:06:13.133Z,0.73
2023-05-10T06:07:13.073Z,0.68
2023-05-10T06:08:12.055Z,0.67
2023-05-10T06:09:13.054Z,0.66
2023-05-10T06:10:13.045Z,0.62
2023-05-10T06:11:12.053Z,0.59
2023-05-10T06:12:13.165Z,0.58
2023-05-10T06:13:12.071Z,0.57
2023-05-10T06:14:12.049Z,0.59
2023-05-10T06:15:13.080Z,0.56
2023-05-10T06:16:12.032Z,0.55
2023-05-10T06:17:12.015Z,0.54
2023-05-10T06:18:13.013Z,0.54
2023-05-10T06:19:12.988Z,0.54
2023-05-10T06:20:12.984Z,0.54
2023-05-10T06:21:12.990Z,0.53
2023-05-10T06:22:13.057Z,0.54
2023-05-10T06:23:11.941Z,0.53
2023-05-10T06:24:11.926Z,0.52
2023-05-10T06:25:12.972Z,0.53
2023-05-10T06:26:11.987Z,0.53
2023-05-10T06:27:12.984Z,0.52
2023-05-10T06:28:12.978Z,0.52
2023-05-10T06:29:12.964Z,0.53
2023-05-10T06:30:13.718Z,0.53
2023-05-10T06:31:13.044Z,0.53
2023-05-10T06:32:12.999Z,0.53
2023-05-10T06:33:12.055Z,0.52
2023-05-10T06:34:12.995Z,0.52
2023-05-10T06:35:12.996Z,0.52
2023-05-10T06:36:13.006Z,0.51
2023-05-10T06:37:11.995Z,0.51
2023-05-10T06:38:12.004Z,0.52
2023-05-10T06:39:13.003Z,0.51
2023-05-10T06:40:13.010Z,0.51
2023-05-10T06:41:11.988Z,0.52
2023-05-10T06:42:13.009Z,0.51
2023-05-10T06:43:12.994Z,0.51
2023-05-10T06:44:12.996Z,0.51
2023-05-10T06:45:13.004Z,0.51
2023-05-10T06:46:13.020Z,0.51
2023-05-10T06:47:13.005Z,0.51
2023-05-10T06:48:13.064Z,0.50
2023-05-10T06:49:11.997Z,0.50
2023-05-10T06:50:12.008Z,0.51
2023-05-10T06:51:12.005Z,0.52
2023-05-10T06:52:13.101Z,0.52
2023-05-10T06:53:13.013Z,0.52
2023-05-10T06:54:12.050Z,0.52
2023-05-10T06:55:12.023Z,0.54
2023-05-10T06:56:12.026Z,0.53
2023-05-10T06:57:23.285Z,0.53
2023-05-10T06:58:13.040Z,0.53
2023-05-10T06:59:12.023Z,0.53
2023-05-10T07:00:12.084Z,0.53
2023-05-10T07:01:12.098Z,0.53
2023-05-10T07:02:12.994Z,0.53
2023-05-10T07:03:13.015Z,0.53
2023-05-10T07:04:11.955Z,0.53
2023-05-10T07:05:11.961Z,0.52
2023-05-10T07:06:21.591Z,0.52
2023-05-10T07:07:12.946Z,0.52
2023-05-10T07:08:12.923Z,0.52
2023-05-10T07:09:12.910Z,0.52
2023-05-10T07:10:12.092Z,0.53
2023-05-10T07:11:11.926Z,0.51
2023-05-10T07:12:15.016Z,0.53
2023-05-10T07:13:12.977Z,0.53
2023-05-10T07:14:12.911Z,0.54
2023-05-10T07:15:12.871Z,0.52
2023-05-10T07:16:11.902Z,0.49
2023-05-10T07:17:12.905Z,0.51
2023-05-10T07:18:12.889Z,0.49
2023-05-10T07:19:11.859Z,0.50
2023-05-10T07:20:11.838Z,0.50
2023-05-10T07:21:12.867Z,0.50
2023-05-10T07:22:11.830Z,0.51
2023-05-10T07:23:11.818Z,0.50
2023-05-10T07:24:12.814Z,0.50
2023-05-10T07:25:11.811Z,0.50
2023-05-10T07:26:12.827Z,0.50
2023-05-10T07:27:11.805Z,0.48
2023-05-10T07:28:12.777Z,0.50
2023-05-10T07:29:14.833Z,0.50
2023-05-10T07:30:12.763Z,0.51
2023-05-10T07:31:11.758Z,0.51
2023-05-10T07:32:13.175Z,0.52
2023-05-10T07:33:12.802Z,0.54
2023-05-10T07:34:12.723Z,0.56
2023-05-10T07:35:12.725Z,0.54
2023-05-10T07:36:12.707Z,0.59
2023-05-10T07:37:12.697Z,0.59
2023-05-10T07:38:12.716Z,0.61
2023-05-10T07:39:16.254Z,0.59
2023-05-10T07:40:12.716Z,0.59
2023-05-10T07:41:12.673Z,0.59
2023-05-10T07:42:11.703Z,0.61
2023-05-10T07:43:12.649Z,0.63
2023-05-10T07:44:11.650Z,0.66
2023-05-10T07:45:12.646Z,0.68
2023-05-10T07:46:12.657Z,0.66
2023-05-10T07:47:13.097Z,0.65
2023-05-10T07:48:12.682Z,0.72
2023-05-10T07:49:12.666Z,0.81
2023-05-10T07:50:12.648Z,0.89
2023-05-10T07:51:12.609Z,0.99
2023-05-10T07:52:11.587Z,1.04
2023-05-10T07:53:11.588Z,1.07
2023-05-10T07:54:11.580Z,1.13
2023-05-10T07:55:11.581Z,1.22
2023-05-10T07:56:12.578Z,1.30
2023-05-10T07:57:12.551Z,1.41
2023-05-10T07:58:11.552Z,1.50
2023-05-10T07:59:12.956Z,1.45
2023-05-10T08:00:11.535Z,1.54
2023-05-10T08:01:11.539Z,1.71
2023-05-10T08:02:12.613Z,1.74
2023-05-10T08:03:11.643Z,1.81
2023-05-10T08:04:11.536Z,1.91
2023-05-10T08:05:12.507Z,2.00
2023-05-10T08:06:12.489Z,2.01
2023-05-10T08:07:12.511Z,2.07
2023-05-10T08:08:11.475Z,2.02
2023-05-10T08:09:12.484Z,2.08
2023-05-10T08:10:11.487Z,2.23
2023-05-10T08:11:11.471Z,2.19
2023-05-10T08:12:11.491Z,2.19
2023-05-10T08:13:11.499Z,2.25
2023-05-10T08:14:11.601Z,2.19
2023-05-10T08:15:12.615Z,2.27
2023-05-10T08:16:12.651Z,2.28
2023-05-10T08:17:12.654Z,2.25
2023-05-10T08:18:12.749Z,2.36
2023-05-10T08:19:11.803Z,2.37
2023-05-10T08:20:11.805Z,2.33
2023-05-10T08:21:12.798Z,2.40
2023-05-10T08:22:12.831Z,2.40
2023-05-10T08:23:11.853Z,2.42
2023-05-10T08:24:12.892Z,2.41
2023-05-10T08:25:12.916Z,2.49
2023-05-10T08:26:12.921Z,2.45
2023-05-10T08:27:12.983Z,2.38
2023-05-10T08:28:13.017Z,2.42
2023-05-10T08:29:13.002Z,2.51
2023-05-10T08:30:13.177Z,2.47
2023-05-10T08:31:13.090Z,2.48
2023-05-10T08:32:13.079Z,2.64
2023-05-10T08:33:12.161Z,2.63
2023-05-10T08:34:13.131Z,2.69
2023-05-10T08:35:13.207Z,2.55
2023-05-10T08:36:13.182Z,2.69
2023-05-10T08:37:12.202Z,2.78
2023-05-10T08:38:13.203Z,2.83
2023-05-10T08:39:22.855Z,2.84
2023-05-10T08:40:13.228Z,2.85
2023-05-10T08:41:13.199Z,2.90
2023-05-10T08:42:13.631Z,2.95
2023-05-10T08:43:12.191Z,3.17
2023-05-10T08:44:13.173Z,3.40
2023-05-10T08:45:12.160Z,3.38
2023-05-10T08:46:12.222Z,3.42
2023-05-10T08:47:12.756Z,3.52
2023-05-10T08:48:13.131Z,3.53
2023-05-10T08:49:13.161Z,3.55
2023-05-10T08:50:13.112Z,3.60
2023-05-10T08:51:13.145Z,3.73
2023-05-10T08:52:13.124Z,3.71
2023-05-10T08:53:13.627Z,3.61
2023-05-10T08:54:13.097Z,3.69
2023-05-10T08:55:12.078Z,3.73
2023-05-10T08:56:13.100Z,3.89
2023-05-10T08:57:13.282Z,3.69
2023-05-10T08:58:13.129Z,3.66
2023-05-10T08:59:12.045Z,3.67
2023-05-10T09:00:12.043Z,3.86
2023-05-10T09:01:13.087Z,4.01
2023-05-10T09:02:12.068Z,4.18
2023-05-10T09:03:13.041Z,4.40
2023-05-10T09:04:12.121Z,4.53
2023-05-10T09:05:12.025Z,4.74
2023-05-10T09:06:11.991Z,4.83
2023-05-10T09:07:12.995Z,5.21
2023-05-10T09:08:13.001Z,5.65
2023-05-10T09:09:12.992Z,5.94
2023-05-10T09:10:13.615Z,6.12
2023-05-10T09:11:13.073Z,6.48
2023-05-10T09:12:12.130Z,6.62
2023-05-10T09:13:13.177Z,6.90
2023-05-10T09:14:13.301Z,6.85
2023-05-10T09:15:13.272Z,6.98
2023-05-10T09:16:21.060Z,7.24
2023-05-10T09:17:13.438Z,7.25
2023-05-10T09:18:13.445Z,7.35
2023-05-10T09:19:13.424Z,7.48
2023-05-10T09:20:12.279Z,7.70
2023-05-10T09:21:12.314Z,8.15
2023-05-10T09:22:13.280Z,8.48
2023-05-10T09:23:12.277Z,8.60
2023-05-10T09:24:13.279Z,8.87
2023-05-10T09:25:12.276Z,9.21
2023-05-10T09:26:13.250Z,9.43
2023-05-10T09:27:12.235Z,9.60
2023-05-10T09:28:13.638Z,9.80
2023-05-10T09:29:12.223Z,10.17
2023-05-10T09:30:13.231Z,10.34
2023-05-10T09:31:13.250Z,10.67
2023-05-10T09:32:13.924Z,10.94
2023-05-10T09:33:13.189Z,11.17
2023-05-10T09:34:12.222Z,11.43
2023-05-10T09:35:13.165Z,11.92
2023-05-10T09:36:12.203Z,12.04
2023-05-10T09:37:13.181Z,12.26
2023-05-10T09:38:12.213Z,12.73
2023-05-10T09:39:13.133Z,12.91
2023-05-10T09:40:13.147Z,13.16
2023-05-10T09:41:12.117Z,13.54
2023-05-10T09:42:12.156Z,14.06
2023-05-10T09:43:12.126Z,14.49
2023-05-10T09:44:13.105Z,14.95
2023-05-10T09:45:12.172Z,15.60
2023-05-10T09:46:13.104Z,15.87
2023-05-10T09:47:12.070Z,16.13
2023-05-10T09:48:13.192Z,16.30
2023-05-10T09:49:13.659Z,16.67
2023-05-10T09:50:13.120Z,16.77
2023-05-10T09:51:12.152Z,16.56
2023-05-10T09:52:13.201Z,16.43
2023-05-10T09:53:12.660Z,16.54
2023-05-10T09:54:12.308Z,11.84
2023-05-10T09:55:13.331Z,7.28
2023-05-10T09:56:13.307Z,4.84
2023-05-10T09:57:13.367Z,4.00
2023-05-10T09:58:13.432Z,3.58
2023-05-10T09:59:13.453Z,2.48
2023-05-10T10:00:13.527Z,2.13
2023-05-10T10:01:13.602Z,1.95
2023-05-10T10:02:13.666Z,1.69
2023-05-10T10:03:13.693Z,1.44
2023-05-10T10:04:13.772Z,1.11
2023-05-10T10:05:13.993Z,1.04
2023-05-10T10:06:26.372Z,0.89
2023-05-10T10:07:13.844Z,0.89
2023-05-10T10:08:13.863Z,0.90
2023-05-10T10:09:12.825Z,0.80
2023-05-10T10:10:13.852Z,0.85
2023-05-10T10:11:13.890Z,0.72
2023-05-10T10:12:12.787Z,0.73
2023-05-10T10:13:13.812Z,0.64
2023-05-10T10:14:13.789Z,0.52
2023-05-10T10:15:16.522Z,0.53
2023-05-10T10:16:12.853Z,0.53
2023-05-10T10:17:13.763Z,0.53
2023-05-10T10:18:13.779Z,0.44
2023-05-10T10:19:13.747Z,0.40
2023-05-10T10:20:12.742Z,0.45
2023-05-10T10:21:13.783Z,0.51
2023-05-10T10:22:12.736Z,0.52
2023-05-10T10:23:15.116Z,0.54
2023-05-10T10:24:13.712Z,0.55
2023-05-10T10:25:13.786Z,0.60
2023-05-10T10:26:13.765Z,0.69
2023-05-10T10:27:13.702Z,0.88
2023-05-10T10:28:12.723Z,1.39
2023-05-10T10:29:12.698Z,1.60
2023-05-10T10:30:13.672Z,1.73
2023-05-10T10:31:13.743Z,1.71
2023-05-10T10:32:12.668Z,1.74
2023-05-10T10:33:24.352Z,1.82
2023-05-10T10:34:13.654Z,1.82
2023-05-10T10:35:13.688Z,1.85
2023-05-10T10:36:13.628Z,1.90
2023-05-10T10:37:12.650Z,1.99
2023-05-10T10:38:12.603Z,2.21
2023-05-10T10:39:12.612Z,2.21
2023-05-10T10:40:12.632Z,2.24
2023-05-10T10:41:12.597Z,2.27
2023-05-10T10:42:12.623Z,2.05
2023-05-10T10:43:13.678Z,1.89
2023-05-10T10:44:13.559Z,2.14
2023-05-10T10:45:12.572Z,2.07
2023-05-10T10:46:13.622Z,2.14
2023-05-10T10:47:12.743Z,2.33
2023-05-10T10:48:13.568Z,2.50
2023-05-10T10:49:12.523Z,2.59
2023-05-10T10:50:13.549Z,2.78
2023-05-10T10:51:13.505Z,2.98
2023-05-10T10:52:13.512Z,3.10
2023-05-10T10:53:12.599Z,3.29
2023-05-10T10:54:12.546Z,3.49
2023-05-10T10:55:13.593Z,3.67
2023-05-10T10:56:13.629Z,3.90
2023-05-10T10:57:13.706Z,4.10
2023-05-10T10:58:13.733Z,4.31
2023-05-10T10:59:13.786Z,4.54
2023-05-10T11:00:12.892Z,5.29
2023-05-10T11:01:13.986Z,5.62
2023-05-10T11:02:12.942Z,6.03
2023-05-10T11:03:14.032Z,6.51
2023-05-10T11:04:14.142Z,6.75
2023-05-10T11:05:13.068Z,6.90
2023-05-10T11:06:13.114Z,7.23
2023-05-10T11:07:14.208Z,7.65
2023-05-10T11:08:14.190Z,7.96
2023-05-10T11:09:14.235Z,8.17
2023-05-10T11:10:13.261Z,7.32
2023-05-10T11:11:14.365Z,6.09
2023-05-10T11:12:14.370Z,4.15
2023-05-10T11:13:13.410Z,3.18
2023-05-10T11:14:13.404Z,1.83
2023-05-10T11:15:14.590Z,1.45
2023-05-10T11:16:13.517Z,1.06
2023-05-10T11:17:14.520Z,1.01
2023-05-10T11:18:14.512Z,0.83
2023-05-10T11:19:14.719Z,0.68
2023-05-10T11:20:14.856Z,0.69
2023-05-10T11:21:14.699Z,0.66
2023-05-10T11:22:14.784Z,0.69
2023-05-10T11:23:13.876Z,0.74
2023-05-10T11:24:14.923Z,0.96
2023-05-10T11:25:14.038Z,1.11
2023-05-10T11:26:14.964Z,1.35
2023-05-10T11:27:15.015Z,1.53
2023-05-10T11:28:15.031Z,1.59
2023-05-10T11:29:15.094Z,1.66
2023-05-10T11:30:15.360Z,1.81
2023-05-10T11:31:15.091Z,1.85
2023-05-10T11:32:14.072Z,1.92
2023-05-10T11:33:14.072Z,1.96
2023-05-10T11:34:14.076Z,2.04
2023-05-10T11:35:14.094Z,2.08
2023-05-10T11:36:14.087Z,2.09
2023-05-10T11:37:14.135Z,1.91
2023-05-10T11:38:15.149Z,2.06
2023-05-10T11:39:15.179Z,2.26
2023-05-10T11:40:15.509Z,2.21
2023-05-10T11:41:15.174Z,2.30
2023-05-10T11:42:15.136Z,2.32
2023-05-10T11:43:14.152Z,2.44
2023-05-10T11:44:15.161Z,2.47
2023-05-10T11:45:14.170Z,2.49
2023-05-10T11:46:15.253Z,2.57
2023-05-10T11:47:14.215Z,2.60
2023-05-10T11:48:15.284Z,2.72
2023-05-10T11:49:15.254Z,2.72
2023-05-10T11:50:14.366Z,2.77
2023-05-10T11:51:14.290Z,2.82
2023-05-10T11:52:15.325Z,2.84
2023-05-10T11:53:14.351Z,2.91
2023-05-10T11:54:15.383Z,2.85
2023-05-10T11:55:15.431Z,2.99
2023-05-10T11:56:15.458Z,2.95
2023-05-10T11:57:15.516Z,2.97
2023-05-10T11:58:15.550Z,2.98
2023-05-10T11:59:14.570Z,3.05
2023-05-10T12:00:14.911Z,3.00
2023-05-10T12:01:15.648Z,3.01
2023-05-10T12:02:14.740Z,3.11
2023-05-10T12:03:14.883Z,3.10
2023-05-10T12:04:15.938Z,3.10
2023-05-10T12:05:14.804Z,3.09
2023-05-10T12:06:15.830Z,3.17
2023-05-10T12:07:15.881Z,3.18
2023-05-10T12:08:15.932Z,3.13
2023-05-10T12:09:16.740Z,2.83
2023-05-10T12:10:16.621Z,2.28
2023-05-10T12:11:14.971Z,2.11
2023-05-10T12:12:14.963Z,2.00
2023-05-10T12:13:15.995Z,2.10
2023-05-10T12:14:15.951Z,2.24
2023-05-10T12:15:15.940Z,2.22
2023-05-10T12:16:15.969Z,2.37
2023-05-10T12:17:15.906Z,2.36
2023-05-10T12:18:14.968Z,2.45
2023-05-10T12:19:15.920Z,2.56
2023-05-10T12:20:15.202Z,2.64
2023-05-10T12:21:15.902Z,2.64
2023-05-10T12:22:15.876Z,2.78
2023-05-10T12:23:14.888Z,2.83
2023-05-10T12:24:14.908Z,2.85
2023-05-10T12:25:15.850Z,3.02
2023-05-10T12:26:14.842Z,3.11
2023-05-10T12:27:15.828Z,3.11
2023-05-10T12:28:15.843Z,3.31
2023-05-10T12:29:15.854Z,3.44
2023-05-10T12:30:16.115Z,3.64
2023-05-10T12:31:15.908Z,3.69
2023-05-10T12:32:15.006Z,3.91
2023-05-10T12:33:14.985Z,4.07
2023-05-10T12:34:16.026Z,4.08
2023-05-10T12:35:16.091Z,4.21
2023-05-10T12:36:16.146Z,4.45
2023-05-10T12:37:16.199Z,4.45
2023-05-10T12:38:15.247Z,4.53
2023-05-10T12:39:15.272Z,4.56
2023-05-10T12:40:15.585Z,4.73
2023-05-10T12:41:16.446Z,4.86
2023-05-10T12:42:16.428Z,4.96
2023-05-10T12:43:16.477Z,5.13
2023-05-10T12:44:16.537Z,5.07
2023-05-10T12:45:16.596Z,4.99
2023-05-10T12:46:16.764Z,5.05
2023-05-10T12:47:16.640Z,5.10
2023-05-10T12:48:16.768Z,5.11
2023-05-10T12:49:16.756Z,5.27
2023-05-10T12:50:17.156Z,5.23
2023-05-10T12:51:16.964Z,5.29
2023-05-10T12:52:16.897Z,5.27
2023-05-10T12:53:15.965Z,5.37
2023-05-10T12:54:17.024Z,5.41
2023-05-10T12:55:17.058Z,5.35
2023-05-10T12:56:16.138Z,5.37
2023-05-10T12:57:17.164Z,5.40
2023-05-10T12:58:31.452Z,5.42
2023-05-10T12:59:17.215Z,5.43
2023-05-10T13:00:17.412Z,5.47
2023-05-10T13:01:16.317Z,5.53
2023-05-10T13:02:16.196Z,5.82
2023-05-10T13:03:17.178Z,5.98
2023-05-10T13:04:17.197Z,5.55
2023-05-10T13:05:17.170Z,5.79
2023-05-10T13:06:17.166Z,5.97
2023-05-10T13:07:17.154Z,5.93
2023-05-10T13:08:17.163Z,6.08
2023-05-10T13:09:17.154Z,6.10
2023-05-10T13:10:17.498Z,6.19
2023-05-10T13:11:17.126Z,6.30
2023-05-10T13:12:16.141Z,6.16
2023-05-10T13:13:16.124Z,6.26
2023-05-10T13:14:17.185Z,6.27
2023-05-10T13:15:16.230Z,6.44
2023-05-10T13:16:17.298Z,6.29
2023-05-10T13:17:17.419Z,6.49